This is the latest recevied weather packets stored in our database for station/object KLEMETTI. If no packets are shown the sender has not sent any weather packets the latest 10 day(s).
| Time | Temp. | Humidity | Pressure | Rain* | Wind** | Luminosity | Snow |
|---|---|---|---|---|---|---|---|
| 1788483889 | 8.89° C | 99% | 1000 hPa | 0 mm | - | - | - |
| 1788482689 | 9.44° C | 99% | 1000.1 hPa | 0 mm | - | - | - |
| 1788481489 | 9.44° C | 99% | 1000.3 hPa | 0 mm | - | - | - |
| 1788480289 | 8.89° C | 98% | 1000.4 hPa | 0 mm | - | - | - |
| 1788479087 | 9.44° C | 99% | 1000.5 hPa | 0 mm | - | - | - |
| 1788477889 | 9.44° C | 98% | 1000.6 hPa | 0 mm | - | - | - |
| 1788476687 | 10° C | 97% | 1000.6 hPa | 0 mm | - | - | - |
| 1788475488 | 10° C | 98% | 1000.6 hPa | 0 mm | - | - | - |
| 1788474288 | 10.56° C | 97% | 1000.8 hPa | 0 mm | - | - | - |
| 1788473088 | 10° C | 98% | 1000.7 hPa | 0 mm | - | - | - |
| 1788471887 | 10° C | 96% | 1000.7 hPa | 0 mm | - | - | - |
| 1788470478 | 11.11° C | 93% | 1000.9 hPa | 0 mm | - | - | - |
| 1788469488 | 11.11° C | 93% | 1001.1 hPa | 0 mm | - | - | - |
| 1788468289 | 11.67° C | 93% | 1001.1 hPa | 0 mm | - | - | - |
| 1788467088 | 12.22° C | 91% | 1001.3 hPa | 0 mm | - | - | - |
| 1788465887 | 12.22° C | 90% | 1001.4 hPa | 0 mm | - | - | - |
| 1788462287 | 13.33° C | 84% | 1001.4 hPa | 0 mm | - | - | - |
| 1788461087 | 12.78° C | 84% | 1001.4 hPa | 0 mm | - | - | - |
| 1788458686 | 13.89° C | 79% | 1001.4 hPa | 0 mm | - | - | - |
| 1788457485 | 14.44° C | 74% | 1001.4 hPa | 0 mm | - | - | - |
| 1788456285 | 15° C | 70% | 1001.4 hPa | 0 mm | - | - | - |
| 1788454876 | 15° C | 72% | 1001.4 hPa | 0 mm | - | - | - |
| 1788453885 | 15.56° C | 70% | 1001.3 hPa | 0 mm | - | - | - |
| 1788452686 | 15.56° C | 70% | 1001.4 hPa | 0 mm | - | - | - |
| 1788451485 | 15.56° C | 68% | 1001.4 hPa | 0 mm | - | - | - |
* Rain latest hour (hover to see other rain measurements)
** Current wind speed in m/s (hover to see current wind gust speed)